WC StCyr

Date de la prise de vue : 27/10/2021 06:37:45
N'ayant pas de Météo à StCyr, voilà le METAR et le TAF de Villacoublay :
2021/10/27 04:30 LFPV 270430Z AUTO 21005KT 170V230 9999 3800 NSC 09/08 Q1025 TEMPO 0500 FG VV///
2021/10/27 03:27 TAF TAF LFPV 270200Z 2703/2803 24005KT CAVOK TX14/2715Z TN09/2706Z PROB40 TEMPO 2703/2706 4000 BR OVC005 TEMPO 2704/2709 1500 BR OVC002 PROB40 TEMPO 2706/2708 0500 FG VV/// BECMG 2710/2711 CAVOK PROB40 TEMPO 2801/2803 3000 BR